Time;durP1;ratioP1;P1;durP2;ratioP2;P2;SDS_P1;SDS_P2;PMS_P1;PMS_P2;Temp;Humidity;BMP_temperature;BMP_pressure;BME280_temperature;BME280_humidity;BME280_pressure;Samples;Min_cycle;Max_cycle;Signal;HPM_P1;HPM_P2
2023/06/27 00:00:12;;;;;;;1.23;1.00;;;;;;;15.60;66.65;101904.38;5052862;28;20029;-87
2023/06/27 00:02:38;;;;;;;1.00;1.00;;;;;;;15.67;67.00;101913.84;5053131;28;20373;-87
2023/06/27 00:05:13;;;;;;;0.90;0.90;;;;;;;15.62;67.75;101909.59;5052120;28;20021;-86
2023/06/27 00:07:50;;;;;;;0.82;0.82;;;;;;;15.57;68.26;101899.22;5052453;28;20363;-86
2023/06/27 00:10:15;;;;;;;1.67;1.00;;;;;;;15.65;67.52;101920.84;5052654;28;20075;-87
2023/06/27 00:12:53;;;;;;;1.60;1.20;;;;;;;15.52;69.23;101909.78;5052598;28;20521;-88
2023/06/27 00:15:34;;;;;;;1.20;1.00;;;;;;;15.55;69.08;101917.53;5052731;28;20052;-88
2023/06/27 00:18:21;;;;;;;1.17;1.08;;;;;;;15.54;69.48;101915.81;5070597;28;20040;-87
2023/06/27 00:21:05;;;;;;;1.45;1.30;;;;;;;15.56;68.40;101926.28;5060035;28;20021;-87
2023/06/27 00:23:49;;;;;;;0.98;0.98;;;;;;;15.50;70.63;101908.94;5052886;28;20108;-87
2023/06/27 00:26:14;;;;;;;1.15;1.00;;;;;;;15.51;69.75;101917.63;5051847;28;20021;-87
2023/06/27 00:28:39;;;;;;;1.53;1.23;;;;;;;15.53;73.18;101926.31;5052427;28;20040;-86
2023/06/27 00:31:08;;;;;;;1.47;1.33;;;;;;;15.50;70.41;101922.00;5052597;28;20025;-87
2023/06/27 00:33:33;;;;;;;2.00;1.63;;;;;;;15.49;69.77;101922.03;5051474;28;20049;-87
2023/06/27 00:35:58;;;;;;;1.17;1.10;;;;;;;15.46;70.57;101915.09;5052945;28;20045;-87
2023/06/27 00:38:24;;;;;;;1.47;1.33;;;;;;;15.49;70.27;101928.13;5052287;28;20025;-87
2023/06/27 00:43:33;;;;;;;1.67;1.33;;;;;;;15.43;70.32;101910.81;5052607;28;20067;-87
2023/06/27 00:46:25;;;;;;;1.37;1.00;;;;;;;15.41;71.69;101898.66;5051780;28;20332;-88
2023/06/27 00:48:51;;;;;;;1.55;1.40;;;;;;;15.45;70.94;101918.59;5045776;28;20052;-87
2023/06/27 00:51:20;;;;;;;1.10;1.10;;;;;;;15.48;73.60;101923.78;5052018;28;20021;-87
2023/06/27 00:53:48;;;;;;;1.35;1.25;;;;;;;15.43;72.35;101915.16;5051870;28;20021;-86
2023/06/27 00:56:32;;;;;;;1.42;1.30;;;;;;;15.42;71.51;101919.53;5051212;28;20041;-87
2023/06/27 00:59:00;;;;;;;1.30;1.20;;;;;;;15.49;70.46;101928.13;5052325;28;20025;-87
2023/06/27 01:01:27;;;;;;;1.30;1.10;;;;;;;15.44;70.28;101914.25;5051602;28;20029;-87
2023/06/27 01:03:52;;;;;;;1.40;1.30;;;;;;;15.37;71.57;101916.13;5052683;28;20025;-87
2023/06/27 01:06:43;;;;;;;1.00;1.00;;;;;;;15.48;70.37;101930.78;5062238;28;20381;-86
2023/06/27 01:10:16;;;;;;;1.65;1.00;;;;;;;15.42;70.20;101918.69;5075025;28;20075;-87
2023/06/27 01:12:59;;;;;;;1.30;1.20;;;;;;;15.46;70.53;101927.34;5012655;28;20040;-87
2023/06/27 01:15:26;;;;;;;1.30;1.20;;;;;;;15.46;70.07;101928.19;5075331;28;20027;-87
2023/06/27 01:17:52;;;;;;;1.10;1.10;;;;;;;15.46;69.66;101928.19;5075874;28;20035;-87
2023/06/27 01:20:18;;;;;;;1.33;1.23;;;;;;;15.47;70.20;101926.44;5075608;28;20028;-86
2023/06/27 01:22:51;;;;;;;1.30;1.20;;;;;;;15.47;70.20;101927.28;5075073;28;20075;-87
2023/06/27 01:25:16;;;;;;;1.30;1.20;;;;;;;15.44;69.54;101923.00;5075565;28;20091;-87
2023/06/27 01:27:42;;;;;;;1.40;1.20;;;;;;;15.45;69.88;101926.44;5075877;28;20476;-87
2023/06/27 01:30:08;;;;;;;1.57;0.93;;;;;;;15.41;72.94;101917.81;5074671;28;20021;-86
2023/06/27 01:32:48;;;;;;;1.48;1.38;;;;;;;15.42;72.11;101923.91;5055463;28;20662;-86
2023/06/27 01:35:27;;;;;;;1.20;1.10;;;;;;;15.39;73.75;101930.03;5055488;28;20773;-87
2023/06/27 01:38:02;;;;;;;2.65;1.98;;;;;;;15.33;71.98;101930.16;5112972;22;20048;-86
2023/06/27 01:40:31;;;;;;;1.63;1.45;;;;;;;15.34;70.24;101928.41;5055142;28;20033;-87
2023/06/27 01:43:03;;;;;;;1.92;1.45;;;;;;;15.35;70.45;101931.00;5054749;28;20051;-87
2023/06/27 01:45:29;;;;;;;1.50;1.30;;;;;;;15.33;71.46;101929.28;5055094;28;20064;-87
2023/06/27 01:47:55;;;;;;;1.40;1.33;;;;;;;15.32;71.34;101924.94;5055280;28;20063;-87
2023/06/27 01:50:21;;;;;;;1.30;1.20;;;;;;;15.29;71.79;101921.53;5054590;28;20033;-87
2023/06/27 01:52:46;;;;;;;1.37;1.27;;;;;;;15.28;70.95;101924.16;5055449;28;20079;-86
2023/06/27 01:55:14;;;;;;;0.93;0.93;;;;;;;15.30;71.36;101914.53;5054620;28;20028;-87
2023/06/27 01:57:40;;;;;;;1.00;1.00;;;;;;;15.31;70.82;101920.63;5054572;28;20035;-86
2023/06/27 02:00:06;;;;;;;1.07;1.07;;;;;;;15.27;72.96;101912.84;5054850;28;20393;-86
2023/06/27 02:02:32;;;;;;;0.93;0.93;;;;;;;15.28;71.44;101917.19;5053747;28;20025;-86
2023/06/27 02:04:57;;;;;;;1.07;0.73;;;;;;;15.26;71.32;101920.69;5054686;28;20036;-87
2023/06/27 02:07:23;;;;;;;1.70;1.60;;;;;;;15.26;73.92;101918.06;5054751;28;20025;-87
2023/06/27 02:09:48;;;;;;;1.50;1.40;;;;;;;15.21;71.90;101909.47;5054967;28;20029;-87
2023/06/27 02:12:14;;;;;;;2.00;1.50;;;;;;;15.21;72.81;101919.91;5053689;28;20064;-86
2023/06/27 02:14:39;;;;;;;2.73;1.47;;;;;;;15.19;71.98;101914.72;5054710;28;20037;-86
2023/06/27 02:17:05;;;;;;;1.50;1.40;;;;;;;15.22;71.95;101914.66;5053337;28;20029;-85
2023/06/27 02:19:30;;;;;;;1.23;1.17;;;;;;;15.22;71.82;101911.19;5054469;28;20039;-86
2023/06/27 02:21:56;;;;;;;1.40;1.30;;;;;;;15.21;72.82;101907.69;5054971;28;20025;-87
2023/06/27 02:24:22;;;;;;;1.27;1.17;;;;;;;15.24;72.22;101907.66;5053846;28;20048;-85
2023/06/27 02:26:47;;;;;;;1.33;1.10;;;;;;;15.22;72.92;101900.72;5054795;28;20033;-86
2023/06/27 02:29:12;;;;;;;0.90;0.90;;;;;;;15.20;71.91;101898.13;5055566;28;20083;-86
2023/06/27 02:31:38;;;;;;;1.50;1.10;;;;;;;15.24;71.50;101901.56;5053700;28;20024;-85
2023/06/27 02:34:15;;;;;;;1.93;1.30;;;;;;;15.15;71.96;101892.13;5053869;28;20072;-85
2023/06/27 02:36:40;;;;;;;1.40;1.30;;;;;;;15.13;72.80;101886.06;5054158;28;20033;-86
2023/06/27 02:39:16;;;;;;;1.30;1.20;;;;;;;15.22;73.49;101898.13;5053175;28;20044;-84
2023/06/27 02:41:41;;;;;;;1.15;1.08;;;;;;;15.21;72.19;101896.38;5054151;28;20044;-85
2023/06/27 02:44:18;;;;;;;0.90;0.90;;;;;;;15.07;74.52;101875.72;5053974;28;20021;-85
2023/06/27 02:46:44;;;;;;;1.20;0.98;;;;;;;15.17;72.69;101897.31;5053431;28;20025;-85
2023/06/27 02:49:15;;;;;;;1.57;1.17;;;;;;;15.17;72.60;101899.94;5054018;28;20035;-85
2023/06/27 02:51:40;;;;;;;1.58;1.20;;;;;;;15.12;72.11;101886.94;5054332;28;20036;-85
2023/06/27 02:54:24;;;;;;;1.80;1.50;;;;;;;15.10;73.09;101883.50;5053370;28;20369;-85
2023/06/27 02:56:49;;;;;;;1.95;1.60;;;;;;;15.04;73.03;101878.38;5053329;28;20027;-85
2023/06/27 02:59:17;;;;;;;1.33;1.20;;;;;;;14.95;73.43;101872.44;5053385;28;20108;-86
2023/06/27 03:01:58;;;;;;;1.23;1.13;;;;;;;14.98;75.07;101897.66;5053565;28;20025;-85
2023/06/27 03:04:39;;;;;;;1.30;1.20;;;;;;;15.01;72.61;101901.94;5053750;28;20083;-85
2023/06/27 03:07:04;;;;;;;1.42;1.33;;;;;;;14.96;72.96;101899.41;5052907;28;20083;-85
2023/06/27 03:09:31;;;;;;;2.33;1.57;;;;;;;15.01;75.41;101907.19;5053773;28;20029;-86
2023/06/27 03:11:56;;;;;;;1.38;1.27;;;;;;;14.94;74.43;101902.06;5053943;28;20024;-85
2023/06/27 03:14:22;;;;;;;1.30;1.20;;;;;;;14.94;74.34;101902.06;5051575;28;20020;-85
2023/06/27 03:16:47;;;;;;;1.57;1.30;;;;;;;14.91;73.43;101904.72;5053282;28;20025;-85
2023/06/27 03:19:12;;;;;;;1.67;1.57;;;;;;;14.92;74.76;101909.06;5053049;28;20029;-85
2023/06/27 03:21:38;;;;;;;1.37;1.27;;;;;;;14.92;74.60;101910.81;5052542;28;20096;-85
2023/06/27 03:24:03;;;;;;;1.20;1.00;;;;;;;14.90;73.47;101905.63;5053221;28;20032;-86
2023/06/27 03:26:29;;;;;;;1.33;1.10;;;;;;;14.95;74.21;101913.38;5053573;28;20044;-87
2023/06/27 03:28:55;;;;;;;3.33;1.83;;;;;;;14.94;76.34;101907.31;5053130;28;20029;-87
2023/06/27 03:31:20;;;;;;;1.43;1.10;;;;;;;14.93;75.50;101902.97;5052735;28;20028;-87
2023/06/27 03:33:46;;;;;;;2.20;1.30;;;;;;;14.91;73.82;101914.34;5053398;28;20036;-87
2023/06/27 03:36:12;;;;;;;1.20;1.10;;;;;;;14.86;73.54;101909.16;5052214;28;20013;-87
2023/06/27 03:38:37;;;;;;;1.57;1.20;;;;;;;14.90;73.36;101908.22;5052874;28;20045;-87
2023/06/27 03:41:02;;;;;;;1.37;1.27;;;;;;;14.82;73.46;101894.44;5053236;28;20033;-88
2023/06/27 03:43:30;;;;;;;1.23;1.13;;;;;;;14.76;74.01;101884.94;5052258;28;20037;-87
2023/06/27 03:45:56;;;;;;;1.48;1.25;;;;;;;14.90;73.04;101908.22;5053331;28;20021;-87
2023/06/27 03:48:37;;;;;;;1.43;1.33;;;;;;;14.78;73.08;101887.50;5052918;28;20047;-87
2023/06/27 03:51:17;;;;;;;1.08;1.05;;;;;;;14.89;75.13;101898.66;5052853;28;20032;-87
2023/06/27 03:54:00;;;;;;;2.55;1.65;;;;;;;14.83;75.60;101893.53;5053395;28;20029;-88
2023/06/27 03:56:31;;;;;;;0.90;0.90;;;;;;;14.77;75.48;101891.91;5051885;28;20397;-87
2023/06/27 03:58:59;;;;;;;2.55;1.30;;;;;;;14.83;75.89;101904.00;5052688;28;20033;-86
2023/06/27 04:01:28;;;;;;;1.25;1.15;;;;;;;14.87;74.02;101916.09;5051990;28;20230;-87
2023/06/27 04:04:09;;;;;;;1.58;1.40;;;;;;;14.72;74.83;101885.00;5051655;28;20083;-86
2023/06/27 04:06:41;;;;;;;1.88;1.30;;;;;;;14.75;73.72;101890.19;5052700;28;20029;-87
2023/06/27 04:09:21;;;;;;;1.42;1.25;;;;;;;14.81;74.06;101890.94;5052508;28;20017;-88
2023/06/27 04:12:02;;;;;;;1.38;1.25;;;;;;;14.85;74.49;101914.41;5052122;28;20079;-87
2023/06/27 04:14:27;;;;;;;2.72;1.35;;;;;;;14.89;76.25;101916.09;5052074;28;20445;-87
2023/06/27 04:17:08;;;;;;;1.70;1.60;;;;;;;14.84;76.28;101908.34;5051903;28;20099;-87
2023/06/27 04:19:48;;;;;;;1.20;1.10;;;;;;;14.78;76.10;101900.59;5052972;28;20086;-88
2023/06/27 04:22:15;;;;;;;3.53;1.70;;;;;;;14.72;76.71;101898.94;5052521;28;20039;-87
2023/06/27 04:24:40;;;;;;;3.67;1.73;;;;;;;14.72;77.04;101901.53;5052101;28;20143;-88
2023/06/27 04:27:08;;;;;;;2.13;1.43;;;;;;;14.73;76.50;101898.03;5052625;28;20029;-87
2023/06/27 04:29:40;;;;;;;1.55;1.45;;;;;;;14.69;75.28;101892.91;5053141;28;20047;-87
2023/06/27 04:32:26;;;;;;;1.80;1.60;;;;;;;14.76;77.18;101902.34;5051317;28;20071;-86
2023/06/27 04:35:15;;;;;;;1.40;1.30;;;;;;;14.73;75.88;101905.88;5052951;28;20017;-90
2023/06/27 04:37:41;;;;;;;1.85;1.50;;;;;;;14.67;76.34;101904.22;5050937;28;20049;-87
2023/06/27 04:40:25;;;;;;;1.60;1.38;;;;;;;14.78;75.99;101916.25;5054488;28;20037;-88
2023/06/27 04:42:57;;;;;;;2.65;1.50;;;;;;;14.72;77.42;101906.78;5056507;28;20041;-88
2023/06/27 04:48:19;;;;;;;1.58;1.20;;;;;;;14.73;76.75;101912.88;5057047;28;20464;-89
2023/06/27 04:51:06;;;;;;;1.52;1.30;;;;;;;14.80;76.33;101925.81;5056745;28;20024;-89
2023/06/27 04:53:53;;;;;;;1.73;1.40;;;;;;;14.82;75.40;101925.78;5056046;28;20036;-89
2023/06/27 04:56:22;;;;;;;1.38;1.27;;;;;;;14.81;76.24;101924.91;5056337;28;20028;-88
2023/06/27 04:59:11;;;;;;;1.50;1.40;;;;;;;14.69;76.61;101905.97;5056333;28;20032;-87
2023/06/27 05:01:36;;;;;;;1.67;1.30;;;;;;;14.70;76.10;101919.00;5047579;28;20037;-88
2023/06/27 05:04:04;;;;;;;1.37;1.27;;;;;;;14.81;76.25;101918.84;5056277;28;20496;-89
2023/06/27 05:09:33;;;;;;;1.05;1.05;;;;;;;14.80;75.79;101910.16;5045198;22;20040;-88
2023/06/27 05:14:26;;;;;;;3.28;1.80;;;;;;;14.89;77.62;101911.72;5052043;28;20048;-89
2023/06/27 05:17:04;;;;;;;1.90;1.60;;;;;;;14.98;76.19;101916.78;5056070;28;20033;-88
2023/06/27 05:19:38;;;;;;;1.40;1.30;;;;;;;15.06;77.56;101918.44;5055965;28;20443;-88
2023/06/27 05:22:05;;;;;;;1.17;1.10;;;;;;;15.10;78.11;101910.50;5055250;28;20511;-88
2023/06/27 05:25:18;;;;;;;1.10;1.00;;;;;;;15.32;77.36;101938.91;5056077;28;20025;-87
2023/06/27 05:27:49;;;;;;;3.38;1.60;;;;;;;15.24;78.54;101912.88;5013961;28;20045;-88
2023/06/27 05:30:33;;;;;;;1.48;1.38;;;;;;;15.34;78.29;101916.22;5024399;22;20030;-88
2023/06/27 05:33:19;;;;;;;1.17;1.10;;;;;;;15.36;78.94;101909.19;5055877;28;20549;-92
2023/06/27 05:36:05;;;;;;;1.25;1.20;;;;;;;15.54;78.23;101928.03;5054712;28;20121;-87
2023/06/27 05:38:30;;;;;;;5.10;2.10;;;;;;;15.56;78.75;101918.41;5054086;28;20036;-87
2023/06/27 05:40:59;;;;;;;2.50;1.57;;;;;;;15.68;78.39;101933.00;5055728;28;20489;-91
2023/06/27 05:43:24;;;;;;;2.15;1.60;;;;;;;15.79;78.34;101931.03;5055349;28;20025;-84
2023/06/27 05:45:59;;;;;;;1.43;1.30;;;;;;;15.85;78.22;101911.78;5055100;28;20091;-85
2023/06/27 05:48:40;;;;;;;1.30;1.20;;;;;;;16.06;78.08;101926.19;5054340;28;20908;-86
2023/06/27 05:54:30;;;;;;;4.10;1.70;;;;;;;16.33;78.29;101929.09;5239396;22;20052;-85
2023/06/27 05:57:34;;;;;;;1.95;1.50;;;;;;;16.32;78.44;101928.22;5093648;28;20082;-85
2023/06/27 06:00:39;;;;;;;1.33;1.20;;;;;;;16.47;79.80;101937.50;5071523;28;20046;-84
2023/06/27 06:03:14;;;;;;;;;;;;;;;16.71;79.52;101929.97;5243158;22;20053;-84
2023/06/27 06:05:42;;;;;;;1.67;1.50;;;;;;;18.08;78.88;101926.44;5054699;28;20299;-85
2023/06/27 06:08:07;;;;;;;1.15;1.05;;;;;;;19.60;73.63;101928.50;5055392;28;20090;-84
2023/06/27 06:10:36;;;;;;;1.20;1.10;;;;;;;20.67;71.72;101919.19;5053752;28;20056;-83
2023/06/27 06:13:30;;;;;;;1.67;1.25;;;;;;;21.94;65.74;101907.63;5495860;22;20042;-85
2023/06/27 06:16:49;;;;;;;2.40;1.20;;;;;;;23.43;64.77;101926.84;4953397;29;20067;-85
2023/06/27 06:19:55;;;;;;;1.55;1.20;;;;;;;24.58;61.91;101931.22;4946274;29;20044;-86
2023/06/27 06:22:20;;;;;;;;;;;;;;;24.89;59.50;101924.16;5172358;22;20090;-85
2023/06/27 06:24:45;;;;;;;1.30;1.20;;;;;;;24.62;57.85;101923.00;5053515;28;19913;-86
2023/06/27 06:27:13;;;;;;;1.40;1.30;;;;;;;23.99;57.89;101921.22;5054173;28;20315;-86
2023/06/27 06:29:39;;;;;;;1.77;1.20;;;;;;;23.48;58.68;101919.50;5054614;28;20098;-85
2023/06/27 06:32:05;;;;;;;1.70;1.40;;;;;;;23.26;59.07;101933.00;5053307;28;20029;-84
2023/06/27 06:34:43;;;;;;;4.03;1.63;;;;;;;23.16;59.08;101927.31;5054165;28;20021;-86
2023/06/27 06:37:36;;;;;;;1.48;1.38;;;;;;;23.11;59.28;101937.28;5054205;28;20424;-85
2023/06/27 06:40:24;;;;;;;2.13;1.63;;;;;;;23.03;59.44;101942.13;5054399;28;20043;-88
2023/06/27 06:42:49;;;;;;;1.48;1.30;;;;;;;22.94;59.24;101933.72;5054282;28;20037;-85
2023/06/27 06:45:15;;;;;;;2.07;1.43;;;;;;;23.01;59.32;101942.22;5418438;22;19999;-87
2023/06/27 06:47:40;;;;;;;2.23;1.47;;;;;;;23.01;59.88;101950.16;5053630;28;20083;-84
2023/06/27 06:50:06;;;;;;;2.07;1.37;;;;;;;23.09;60.42;101949.72;5052870;28;20474;-85
2023/06/27 06:52:31;;;;;;;1.65;1.30;;;;;;;23.15;59.67;101936.19;5052788;28;20492;-84
2023/06/27 06:54:56;;;;;;;0.93;0.83;;;;;;;23.28;58.70;101953.22;5045489;28;20033;-83
2023/06/27 06:57:22;;;;;;;3.03;1.73;;;;;;;23.36;60.15;101951.94;5054287;28;20036;-84
2023/06/27 06:59:47;;;;;;;1.77;1.20;;;;;;;23.53;60.22;101951.91;5057622;28;20452;-84
2023/06/27 07:02:13;;;;;;;1.20;1.10;;;;;;;23.55;58.86;101952.69;5064581;28;20024;-84
2023/06/27 07:04:38;;;;;;;1.53;1.20;;;;;;;23.50;60.32;101945.91;5052901;28;20036;-84
2023/06/27 07:07:15;;;;;;;1.60;1.00;;;;;;;23.65;59.58;101950.41;5052846;28;20108;-83
2023/06/27 07:09:47;;;;;;;1.95;1.40;;;;;;;23.83;59.38;101950.34;5054835;28;20041;-83
2023/06/27 07:12:12;;;;;;;2.55;1.65;;;;;;;23.85;58.49;101940.53;5066118;28;20099;-84
2023/06/27 07:14:37;;;;;;;6.60;2.23;;;;;;;23.83;53.31;101947.69;5052279;28;20545;-84
2023/06/27 07:17:11;;;;;;;2.90;1.83;;;;;;;23.73;58.38;101950.84;5052619;28;20021;-85
2023/06/27 07:19:42;;;;;;;3.60;1.70;;;;;;;23.87;58.47;101942.16;5052015;28;20047;-84
2023/06/27 07:22:07;;;;;;;2.15;1.65;;;;;;;24.16;58.27;101954.78;5052730;28;20028;-84
2023/06/27 07:24:32;;;;;;;1.40;1.27;;;;;;;24.17;56.68;101960.00;5053169;28;20484;-85
2023/06/27 07:26:58;;;;;;;1.53;1.30;;;;;;;24.23;56.29;101965.91;5052217;28;20075;-85
2023/06/27 07:29:23;;;;;;;1.47;1.37;;;;;;;24.12;57.75;101942.66;5052227;28;20021;-85
2023/06/27 07:31:49;;;;;;;1.60;1.33;;;;;;;23.99;56.98;101953.94;5052937;28;20024;-85
2023/06/27 07:34:16;;;;;;;1.50;1.10;;;;;;;23.78;58.31;101952.41;5052190;28;20017;-85
2023/06/27 07:36:42;;;;;;;2.25;1.50;;;;;;;23.64;58.32;101950.50;5053029;28;20025;-84
2023/06/27 07:39:07;;;;;;;4.53;1.70;;;;;;;23.53;58.25;101943.94;5052400;28;20384;-85
2023/06/27 07:41:33;;;;;;;1.10;1.10;;;;;;;23.47;58.17;101943.44;5052129;28;20071;-85
2023/06/27 07:43:59;;;;;;;1.17;1.10;;;;;;;23.41;57.80;101949.94;5052582;28;20036;-85
2023/06/27 07:46:24;;;;;;;1.20;1.10;;;;;;;23.25;58.45;101953.34;5052275;28;20124;-84
2023/06/27 07:48:49;;;;;;;2.53;1.03;;;;;;;23.08;58.19;101940.09;5052362;28;20033;-85
2023/06/27 07:54:05;;;;;;;1.50;1.35;;;;;;;22.78;56.34;101946.00;5052670;28;20039;-85
2023/06/27 07:56:30;;;;;;;1.67;1.15;;;;;;;22.65;57.74;101943.94;5051802;28;20036;-85
2023/06/27 07:58:59;;;;;;;0.80;0.80;;;;;;;22.60;57.52;101935.38;5052474;28;20029;-84
2023/06/27 08:01:33;;;;;;;0.93;0.80;;;;;;;22.54;57.82;101934.84;5047669;28;20468;-85
2023/06/27 08:04:17;;;;;;;2.15;1.25;;;;;;;22.36;56.59;101937.38;5049851;28;20032;-84
2023/06/27 08:06:42;;;;;;;0.82;0.82;;;;;;;22.36;55.83;101942.66;5052058;28;20082;-84
2023/06/27 08:09:27;;;;;;;0.80;0.80;;;;;;;22.45;56.48;101946.69;5109261;27;20403;-84
2023/06/27 08:12:11;;;;;;;0.60;0.60;;;;;;;22.54;56.38;101940.13;5114840;22;20391;-84
2023/06/27 08:14:37;;;;;;;0.50;0.50;;;;;;;22.70;55.93;101956.94;5049843;28;20037;-84
2023/06/27 08:17:03;;;;;;;;;;;;;;;22.79;56.52;101945.06;5049504;28;20075;-84
2023/06/27 08:19:28;;;;;;;1.25;0.68;;;;;;;22.87;55.72;101942.88;5049171;28;20377;-84
2023/06/27 08:21:54;;;;;;;1.23;0.80;;;;;;;22.90;55.82;101942.72;5047755;28;20120;-84
2023/06/27 08:24:31;;;;;;;1.37;0.70;;;;;;;22.96;56.17;101933.63;5048793;28;20108;-84
2023/06/27 08:27:05;;;;;;;0.60;0.60;;;;;;;22.95;54.76;101934.56;5049369;28;20164;-84
2023/06/27 08:29:31;;;;;;;0.47;0.47;;;;;;;22.91;55.75;101947.09;5049411;28;20060;-84
2023/06/27 08:32:02;;;;;;;0.63;0.50;;;;;;;22.83;56.50;101947.47;5048792;28;20021;-84
2023/06/27 08:34:28;;;;;;;0.40;0.40;;;;;;;22.88;56.73;101952.53;5049170;28;20025;-84
2023/06/27 08:36:54;;;;;;;2.08;1.13;;;;;;;22.83;54.17;101942.19;5049184;28;20021;-84
2023/06/27 08:39:19;;;;;;;1.10;1.00;;;;;;;22.77;56.39;101936.34;5048383;28;20397;-84
2023/06/27 08:41:45;;;;;;;1.03;0.70;;;;;;;22.75;56.09;101941.72;5049276;28;20025;-82
2023/06/27 08:44:11;;;;;;;1.55;0.80;;;;;;;22.62;55.92;101930.88;5048690;28;20481;-82
2023/06/27 08:46:38;;;;;;;1.40;0.53;;;;;;;22.57;56.34;101932.03;5049378;28;20021;-85
2023/06/27 08:49:03;;;;;;;0.55;0.50;;;;;;;22.54;56.53;101933.03;5048941;28;20132;-80
2023/06/27 08:51:33;;;;;;;0.77;0.55;;;;;;;22.54;56.73;101934.84;5047590;28;20108;-86
2023/06/27 08:54:10;;;;;;;0.45;0.45;;;;;;;22.51;56.64;101927.91;5048456;28;20029;-85
2023/06/27 08:56:36;;;;;;;0.50;0.50;;;;;;;22.45;56.31;101933.47;5049205;28;20083;-88
2023/06/27 08:59:05;;;;;;;0.88;0.80;;;;;;;22.37;56.26;101933.81;5048862;28;20036;-84
2023/06/27 09:01:34;;;;;;;0.60;0.60;;;;;;;22.32;56.60;101928.75;5049231;28;20386;-83
2023/06/27 09:04:00;;;;;;;0.93;0.85;;;;;;;22.27;57.03;101914.03;5049078;28;20025;-84
2023/06/27 09:06:26;;;;;;;0.85;0.40;;;;;;;22.33;56.84;101927.81;5047623;28;20071;-83
2023/06/27 09:08:52;;;;;;;0.83;0.70;;;;;;;22.27;55.70;101912.25;5049000;28;20065;-83
2023/06/27 09:11:18;;;;;;;1.13;0.90;;;;;;;22.39;56.84;101928.47;5048680;28;20093;-83
2023/06/27 09:13:44;;;;;;;0.43;0.43;;;;;;;22.49;57.63;101927.97;5047822;28;20041;-83
2023/06/27 09:16:09;;;;;;;0.50;0.50;;;;;;;22.59;56.34;101933.69;5048735;28;20021;-82
2023/06/27 09:18:39;;;;;;;1.27;0.40;;;;;;;22.64;56.69;101931.66;5047524;28;20124;-80
2023/06/27 09:21:07;;;;;;;0.50;0.50;;;;;;;22.66;56.42;101928.94;5034071;28;20029;-83
2023/06/27 09:23:46;;;;;;;1.05;0.77;;;;;;;22.66;55.77;101928.94;5034706;28;20401;-82
2023/06/27 09:26:13;;;;;;;0.60;0.60;;;;;;;22.66;54.56;101931.59;5026618;28;20103;-82
2023/06/27 09:28:45;;;;;;;0.60;0.47;;;;;;;22.73;55.18;101932.16;5034651;28;20049;-83
2023/06/27 09:31:12;;;;;;;1.10;0.63;;;;;;;22.81;55.38;101930.81;5034849;28;20116;-83
2023/06/27 09:33:44;;;;;;;0.60;0.60;;;;;;;22.87;54.21;101927.00;5034602;28;20439;-83
2023/06/27 09:36:10;;;;;;;0.40;0.40;;;;;;;22.98;53.56;101935.25;5036129;28;20458;-83
2023/06/27 09:38:36;;;;;;;0.70;0.60;;;;;;;23.00;51.12;101932.56;5035655;28;20021;-83
2023/06/27 09:41:03;;;;;;;0.50;0.50;;;;;;;23.02;54.25;101929.81;5034466;28;20029;-82
2023/06/27 09:43:31;;;;;;;0.50;0.50;;;;;;;23.13;53.02;101935.41;5034373;28;20071;-83
2023/06/27 09:45:58;;;;;;;0.52;0.52;;;;;;;23.14;49.29;101931.84;5035330;28;20029;-83
2023/06/27 09:48:24;;;;;;;0.35;0.35;;;;;;;23.34;50.96;101945.88;5033630;28;20076;-82
2023/06/27 09:50:57;;;;;;;1.77;1.02;;;;;;;23.28;49.31;101953.22;5034126;28;20021;-83
2023/06/27 09:53:23;;;;;;;0.80;0.80;;;;;;;23.26;50.60;101955.06;5034141;28;20025;-82
2023/06/27 09:55:48;;;;;;;1.30;1.00;;;;;;;23.35;47.38;101948.44;5033513;28;20022;-82
2023/06/27 09:58:13;;;;;;;1.10;0.93;;;;;;;23.45;47.71;101938.22;5034019;28;20018;-82
2023/06/27 10:00:39;;;;;;;1.07;0.70;;;;;;;23.58;49.30;101928.69;5034437;28;20478;-82
2023/06/27 10:03:08;;;;;;;0.67;0.60;;;;;;;23.70;48.35;101950.16;5033104;28;20087;-83
2023/06/27 10:05:33;;;;;;;0.90;0.68;;;;;;;23.89;50.40;101945.56;5030002;28;20034;-82
2023/06/27 10:07:59;;;;;;;1.07;0.70;;;;;;;24.08;48.04;101957.00;5034125;28;20082;-82
2023/06/27 10:10:25;;;;;;;0.60;0.60;;;;;;;24.01;45.16;101948.53;5033420;28;20069;-82
2023/06/27 10:12:52;;;;;;;1.88;0.68;;;;;;;24.00;44.17;101928.25;5033524;28;20156;-82
2023/06/27 10:15:17;;;;;;;;;;;;;;;24.19;46.76;101938.69;5034739;28;20038;-83
2023/06/27 10:17:52;;;;;;;0.60;0.60;;;;;;;24.18;47.75;101935.22;5033430;28;19913;-82
2023/06/27 10:20:32;;;;;;;0.45;0.45;;;;;;;24.23;47.04;101934.94;5033720;28;20072;-83
2023/06/27 10:23:39;;;;;;;1.83;0.70;;;;;;;24.20;45.03;101924.50;5033913;28;20036;-82
2023/06/27 10:26:26;;;;;;;1.00;0.85;;;;;;;24.16;47.34;101937.09;5033533;28;20114;-83
2023/06/27 10:28:58;;;;;;;0.88;0.77;;;;;;;24.28;47.88;101946.13;5033626;28;20036;-83
2023/06/27 10:32:01;;;;;;;0.77;0.77;;;;;;;24.23;46.51;101955.28;5032274;28;20100;-83
2023/06/27 10:34:29;;;;;;;0.75;0.75;;;;;;;24.15;43.09;101953.94;5033697;28;20457;-83
2023/06/27 10:37:20;;;;;;;0.70;0.70;;;;;;;24.19;42.94;101933.41;5033204;28;20030;-83
2023/06/27 10:40:00;;;;;;;0.73;0.43;;;;;;;24.40;44.37;101926.03;5033422;28;20049;-83
2023/06/27 10:42:32;;;;;;;0.93;0.80;;;;;;;24.70;42.15;101935.84;5033565;28;20493;-83
2023/06/27 10:45:25;;;;;;;0.80;0.77;;;;;;;24.88;44.71;101938.38;5033277;28;20378;-83
2023/06/27 10:48:02;;;;;;;0.80;0.80;;;;;;;24.95;41.48;101934.41;5033936;28;20420;-83
2023/06/27 10:50:32;;;;;;;0.80;0.77;;;;;;;24.83;41.84;101933.31;5033134;28;20029;-83
2023/06/27 10:53:25;;;;;;;0.70;0.70;;;;;;;24.83;38.21;101935.97;5033333;28;20044;-83
2023/06/27 10:56:29;;;;;;;2.25;1.08;;;;;;;24.54;41.23;101925.25;5033532;28;20029;-82
2023/06/27 10:59:20;;;;;;;;;;;;;;;;;;;;;
2023/06/27 11:02:17;;;;;;;1.92;1.08;;;;;;;24.66;40.84;101931.63;5032038;28;20035;-82
2023/06/27 11:05:00;;;;;;;0.77;0.77;;;;;;;24.98;40.87;101913.00;5032768;28;20510;-82
2023/06/27 11:07:28;;;;;;;1.17;0.80;;;;;;;25.22;40.45;101915.13;5033473;28;20477;-83
2023/06/27 11:09:55;;;;;;;0.73;0.57;;;;;;;25.25;40.71;101928.19;5033510;28;20025;-82
2023/06/27 11:12:21;;;;;;;1.52;0.80;;;;;;;25.06;40.57;101926.66;5031946;28;20065;-82
2023/06/27 11:15:03;;;;;;;0.90;0.50;;;;;;;24.92;42.48;101940.78;5033448;28;20052;-82
2023/06/27 11:17:39;;;;;;;0.77;0.60;;;;;;;24.75;41.66;101920.53;5032175;28;20025;-82
2023/06/27 11:22:48;;;;;;;0.60;0.60;;;;;;;24.72;42.77;101922.47;5097109;22;20435;-82
2023/06/27 11:25:14;;;;;;;0.40;0.40;;;;;;;24.86;41.24;101934.97;5086026;28;20035;-81
2023/06/27 11:27:40;;;;;;;1.17;0.50;;;;;;;25.00;42.73;101928.84;5091750;28;20034;-82
2023/06/27 11:30:06;;;;;;;2.53;1.00;;;;;;;25.10;39.41;101932.66;5093086;28;20016;-82
2023/06/27 11:32:31;;;;;;;1.13;0.77;;;;;;;25.01;39.27;101927.88;5093122;28;20020;-82
2023/06/27 11:35:11;;;;;;;1.35;1.13;;;;;;;24.94;39.16;101925.56;5092208;28;20065;-81
2023/06/27 11:37:36;;;;;;;1.35;0.90;;;;;;;25.09;40.56;101934.47;5093066;28;20028;-76
2023/06/27 11:40:07;;;;;;;0.80;0.80;;;;;;;25.19;40.30;101934.75;5091997;28;20161;-81
2023/06/27 11:42:35;;;;;;;1.05;0.82;;;;;;;25.19;40.89;101933.91;5147815;22;20048;-77
2023/06/27 11:45:02;;;;;;;0.70;0.70;;;;;;;25.20;40.88;101928.47;5093221;28;20031;-89
2023/06/27 11:47:28;;;;;;;0.55;0.55;;;;;;;25.27;37.95;101929.84;5091862;28;20056;-80
2023/06/27 11:49:53;;;;;;;1.37;0.90;;;;;;;25.29;38.89;101930.56;5092560;28;20451;-80
2023/06/27 11:52:18;;;;;;;1.17;0.87;;;;;;;25.42;39.05;101937.84;5092598;28;20104;-79
2023/06/27 11:54:49;;;;;;;2.20;1.00;;;;;;;25.65;39.19;101930.25;5091942;28;20030;-79
2023/06/27 11:57:17;;;;;;;1.83;1.13;;;;;;;25.85;39.89;101937.81;5092598;28;20033;-85
2023/06/27 11:59:45;;;;;;;0.57;0.57;;;;;;;26.18;40.46;101939.31;5093130;28;20024;-80
2023/06/27 12:02:10;;;;;;;1.10;0.77;;;;;;;26.36;38.56;101937.25;5088479;28;20028;-84
2023/06/27 12:04:38;;;;;;;1.63;0.80;;;;;;;26.29;37.52;101932.47;5092372;28;20368;-82
2023/06/27 12:07:19;;;;;;;1.75;0.90;;;;;;;26.13;37.76;101929.91;5092409;28;20286;-84